createdAt,value
2023-09-17T00:00:41.090Z,93.51
2023-09-17T00:01:41.163Z,93.51
2023-09-17T00:02:41.058Z,93.60
2023-09-17T00:03:41.184Z,93.71
2023-09-17T00:04:41.069Z,93.91
2023-09-17T00:05:41.047Z,94.01
2023-09-17T00:06:40.995Z,94.01
2023-09-17T00:07:41.122Z,93.81
2023-09-17T00:08:40.966Z,93.60
2023-09-17T00:09:40.978Z,93.51
2023-09-17T00:10:41.053Z,93.51
2023-09-17T00:11:40.951Z,93.51
2023-09-17T00:12:40.936Z,93.60
2023-09-17T00:13:41.022Z,93.51
2023-09-17T00:14:40.954Z,93.40
2023-09-17T00:15:40.903Z,93.20
2023-09-17T00:16:40.984Z,93.30
2023-09-17T00:17:40.957Z,93.30
2023-09-17T00:18:40.878Z,93.40
2023-09-17T00:19:40.918Z,93.40
2023-09-17T00:20:40.856Z,93.51
2023-09-17T00:21:40.845Z,93.51
2023-09-17T00:22:40.913Z,93.51
2023-09-17T00:23:40.839Z,93.40
2023-09-17T00:24:40.816Z,93.30
2023-09-17T00:25:40.803Z,93.20
2023-09-17T00:26:40.789Z,93.40
2023-09-17T00:27:40.813Z,93.40
2023-09-17T00:28:40.848Z,93.30
2023-09-17T00:29:40.761Z,93.20
2023-09-17T00:30:40.754Z,92.90
2023-09-17T00:31:40.768Z,92.69
2023-09-17T00:32:40.865Z,92.60
2023-09-17T00:33:40.714Z,92.69
2023-09-17T00:34:40.726Z,92.49
2023-09-17T00:35:40.689Z,92.60
2023-09-17T00:36:40.699Z,92.40
2023-09-17T00:37:40.694Z,92.44
2023-09-17T00:38:40.657Z,92.60
2023-09-17T00:39:40.687Z,92.44
2023-09-17T00:40:40.722Z,92.54
2023-09-17T00:41:40.637Z,92.74
2023-09-17T00:42:40.656Z,92.94
2023-09-17T00:43:40.748Z,93.15
2023-09-17T00:44:40.600Z,93.24
2023-09-17T00:45:40.599Z,93.24
2023-09-17T00:46:40.705Z,93.24
2023-09-17T00:47:40.627Z,93.24
2023-09-17T00:48:40.558Z,93.35
2023-09-17T00:49:40.592Z,93.30
2023-09-17T00:50:40.990Z,93.15
2023-09-17T00:51:40.523Z,93.04
2023-09-17T00:52:40.648Z,93.04
2023-09-17T00:53:40.550Z,93.04
2023-09-17T00:54:40.509Z,93.04
2023-09-17T00:55:40.501Z,93.04
2023-09-17T00:56:40.478Z,93.20
2023-09-17T00:57:40.472Z,93.24
2023-09-17T00:58:40.508Z,93.20
2023-09-17T00:59:40.451Z,92.94
2023-09-17T01:00:40.426Z,92.54
2023-09-17T01:01:40.479Z,92.33
2023-09-17T01:02:40.701Z,92.44
2023-09-17T01:03:40.458Z,92.64
2023-09-17T01:04:40.464Z,92.74
2023-09-17T01:05:40.365Z,92.94
2023-09-17T01:06:40.353Z,93.04
2023-09-17T01:07:40.391Z,92.74
2023-09-17T01:08:40.345Z,92.44
2023-09-17T01:09:40.361Z,92.33
2023-09-17T01:10:40.316Z,92.24
2023-09-17T01:11:40.320Z,92.44
2023-09-17T01:12:40.290Z,92.64
2023-09-17T01:13:40.295Z,92.74
2023-09-17T01:14:40.285Z,92.94
2023-09-17T01:15:40.322Z,92.84
2023-09-17T01:16:40.360Z,92.74
2023-09-17T01:17:40.324Z,92.74
2023-09-17T01:18:40.255Z,92.94
2023-09-17T01:19:40.303Z,92.74
2023-09-17T01:20:40.226Z,92.84
2023-09-17T01:21:40.257Z,92.84
2023-09-17T01:22:40.254Z,92.94
2023-09-17T01:23:40.191Z,92.94
2023-09-17T01:24:40.195Z,93.04
2023-09-17T01:25:40.218Z,93.04
2023-09-17T01:26:40.167Z,93.04
2023-09-17T01:27:40.158Z,93.04
2023-09-17T01:28:40.214Z,92.94
2023-09-17T01:29:40.112Z,92.94
2023-09-17T01:30:40.109Z,92.74
2023-09-17T01:31:40.101Z,92.74
2023-09-17T01:32:40.115Z,92.74
2023-09-17T01:33:40.163Z,92.54
2023-09-17T01:34:40.125Z,92.54
2023-09-17T01:35:40.059Z,92.44
2023-09-17T01:36:40.048Z,92.44
2023-09-17T01:37:40.069Z,92.64
2023-09-17T01:38:40.041Z,92.94
2023-09-17T01:39:40.049Z,92.94
2023-09-17T01:40:40.026Z,92.94
2023-09-17T01:41:39.976Z,92.94
2023-09-17T01:42:40.008Z,93.04
2023-09-17T01:43:40.017Z,93.15
2023-09-17T01:44:39.948Z,92.94
2023-09-17T01:45:40.051Z,93.04
2023-09-17T01:46:39.960Z,92.74
2023-09-17T01:47:40.032Z,92.84
2023-09-17T01:48:39.920Z,92.64
2023-09-17T01:49:39.944Z,92.58
2023-09-17T01:50:39.886Z,92.68
2023-09-17T01:51:39.934Z,92.58
2023-09-17T01:52:39.923Z,92.79
2023-09-17T01:53:39.887Z,92.68
2023-09-17T01:54:39.859Z,92.38
2023-09-17T01:55:39.883Z,92.28
2023-09-17T01:56:39.864Z,92.18
2023-09-17T01:57:39.834Z,92.38
2023-09-17T01:58:39.865Z,92.28
2023-09-17T01:59:39.799Z,92.18
2023-09-17T02:00:39.813Z,92.48
2023-09-17T02:01:39.837Z,92.58
2023-09-17T02:02:39.958Z,92.79
2023-09-17T02:03:39.890Z,92.99
2023-09-17T02:04:39.800Z,92.99
2023-09-17T02:05:39.749Z,92.99
2023-09-17T02:06:39.733Z,93.08
2023-09-17T02:07:39.820Z,92.99
2023-09-17T02:08:39.719Z,92.88
2023-09-17T02:09:39.721Z,92.79
2023-09-17T02:10:39.769Z,92.88
2023-09-17T02:11:39.661Z,92.99
2023-09-17T02:12:39.654Z,92.99
2023-09-17T02:13:39.702Z,92.58
2023-09-17T02:14:39.631Z,92.79
2023-09-17T02:15:39.667Z,93.08
2023-09-17T02:16:39.690Z,93.08
2023-09-17T02:17:39.685Z,92.88
2023-09-17T02:18:39.589Z,92.88
2023-09-17T02:19:39.635Z,92.48
2023-09-17T02:20:39.549Z,91.92
2023-09-17T02:21:39.924Z,91.82
2023-09-17T02:22:39.580Z,91.92
2023-09-17T02:23:39.559Z,91.92
2023-09-17T02:24:39.522Z,92.22
2023-09-17T02:25:39.582Z,92.42
2023-09-17T02:26:39.505Z,92.32
2023-09-17T02:27:39.528Z,92.52
2023-09-17T02:28:39.555Z,92.72
2023-09-17T02:29:39.454Z,92.63
2023-09-17T02:30:39.468Z,92.42
2023-09-17T02:31:39.552Z,92.12
2023-09-17T02:32:39.486Z,92.12
2023-09-17T02:33:39.428Z,92.32
2023-09-17T02:34:39.477Z,92.52
2023-09-17T02:35:39.393Z,92.93
2023-09-17T02:36:39.419Z,93.13
2023-09-17T02:37:39.421Z,93.13
2023-09-17T02:38:39.366Z,93.13
2023-09-17T02:39:39.373Z,93.03
2023-09-17T02:40:39.376Z,92.52
2023-09-17T02:41:39.336Z,92.02
2023-09-17T02:42:39.373Z,92.12
2023-09-17T02:43:39.424Z,92.52
2023-09-17T02:44:39.302Z,92.63
2023-09-17T02:45:39.298Z,93.03
2023-09-17T02:46:39.333Z,93.03
2023-09-17T02:47:39.348Z,92.72
2023-09-17T02:48:39.278Z,92.93
2023-09-17T02:49:39.371Z,92.52
2023-09-17T02:50:39.244Z,92.63
2023-09-17T02:51:39.222Z,92.83
2023-09-17T02:52:39.286Z,93.03
2023-09-17T02:53:39.207Z,92.83
2023-09-17T02:54:39.252Z,92.83
2023-09-17T02:55:39.224Z,92.72
2023-09-17T02:56:39.212Z,92.63
2023-09-17T02:57:39.156Z,92.63
2023-09-17T02:58:39.179Z,92.72
2023-09-17T02:59:39.125Z,92.83
2023-09-17T03:00:40.315Z,92.72
2023-09-17T03:01:39.166Z,92.83
2023-09-17T03:02:39.155Z,93.03
2023-09-17T03:03:39.141Z,92.93
2023-09-17T03:04:39.117Z,92.83
2023-09-17T03:05:39.111Z,92.42
2023-09-17T03:06:39.064Z,92.06
2023-09-17T03:07:39.114Z,91.96
2023-09-17T03:08:39.094Z,92.16
2023-09-17T03:09:39.026Z,92.47
2023-09-17T03:10:39.074Z,92.83
2023-09-17T03:11:39.096Z,93.13
2023-09-17T03:12:38.992Z,93.33
2023-09-17T03:13:39.051Z,93.23
2023-09-17T03:14:39.022Z,93.03
2023-09-17T03:15:38.996Z,93.13
2023-09-17T03:16:38.989Z,93.13
2023-09-17T03:17:39.141Z,92.97
2023-09-17T03:18:38.954Z,92.72
2023-09-17T03:19:38.954Z,92.57
2023-09-17T03:20:38.926Z,92.57
2023-09-17T03:21:38.918Z,92.57
2023-09-17T03:22:38.945Z,92.77
2023-09-17T03:23:38.894Z,92.87
2023-09-17T03:24:40.892Z,92.77
2023-09-17T03:25:39.964Z,92.87
2023-09-17T03:26:38.856Z,92.67
2023-09-17T03:27:38.824Z,92.47
2023-09-17T03:28:38.948Z,92.36
2023-09-17T03:29:38.839Z,92.47
2023-09-17T03:30:38.841Z,92.57
2023-09-17T03:31:38.825Z,92.87
2023-09-17T03:32:46.240Z,93.07
2023-09-17T03:33:39.962Z,93.38
2023-09-17T03:34:38.805Z,93.54
2023-09-17T03:35:38.781Z,93.48
2023-09-17T03:36:38.752Z,93.43
2023-09-17T03:37:38.777Z,93.43
2023-09-17T03:38:38.721Z,93.48
2023-09-17T03:39:38.750Z,93.38
2023-09-17T03:40:38.744Z,93.27
2023-09-17T03:41:38.683Z,93.18
2023-09-17T03:42:38.704Z,93.38
2023-09-17T03:43:38.730Z,93.27
2023-09-17T03:44:38.655Z,93.18
2023-09-17T03:45:38.649Z,92.67
2023-09-17T03:46:38.728Z,91.75
2023-09-17T03:47:38.646Z,91.55
2023-09-17T03:48:38.614Z,91.60
2023-09-17T03:49:38.699Z,91.80
2023-09-17T03:50:38.605Z,92.10
2023-09-17T03:51:38.560Z,92.61
2023-09-17T03:52:38.643Z,93.18
2023-09-17T03:53:38.607Z,93.27
2023-09-17T03:54:38.565Z,93.27
2023-09-17T03:55:38.550Z,93.18
2023-09-17T03:56:38.545Z,92.91
2023-09-17T03:57:38.532Z,92.71
2023-09-17T03:58:38.549Z,92.91
2023-09-17T03:59:38.510Z,92.91
2023-09-17T04:00:38.465Z,92.51
2023-09-17T04:01:38.643Z,92.21
2023-09-17T04:02:38.541Z,92.51
2023-09-17T04:03:38.491Z,92.82
2023-09-17T04:04:38.491Z,92.82
2023-09-17T04:05:38.433Z,92.71
2023-09-17T04:06:38.487Z,92.51
2023-09-17T04:07:38.489Z,92.61
2023-09-17T04:08:38.395Z,92.91
2023-09-17T04:09:38.371Z,93.52
2023-09-17T04:10:38.435Z,94.39
2023-09-17T04:11:38.360Z,94.29
2023-09-17T04:12:38.391Z,93.88
2023-09-17T04:13:38.339Z,94.09
2023-09-17T04:14:38.312Z,93.99
2023-09-17T04:15:38.389Z,93.68
2023-09-17T04:16:38.374Z,93.42
2023-09-17T04:17:38.302Z,93.02
2023-09-17T04:18:38.325Z,92.82
2023-09-17T04:19:38.331Z,93.02
2023-09-17T04:20:38.273Z,93.12
2023-09-17T04:21:38.241Z,93.07
2023-09-17T04:22:38.371Z,92.91
2023-09-17T04:23:38.252Z,92.82
2023-09-17T04:24:38.214Z,92.61
2023-09-17T04:25:38.211Z,92.71
2023-09-17T04:26:38.199Z,92.71
2023-09-17T04:27:38.310Z,92.71
2023-09-17T04:28:38.222Z,92.82
2023-09-17T04:29:38.168Z,93.32
2023-09-17T04:30:38.157Z,93.52
2023-09-17T04:31:38.209Z,93.88
2023-09-17T04:32:38.178Z,93.88
2023-09-17T04:33:38.200Z,93.22
2023-09-17T04:34:38.145Z,91.60
2023-09-17T04:35:38.088Z,91.70
2023-09-17T04:36:38.108Z,92.41
2023-09-17T04:37:38.166Z,93.12
2023-09-17T04:38:38.119Z,93.32
2023-09-17T04:39:38.047Z,92.61
2023-09-17T04:40:38.082Z,92.05
2023-09-17T04:41:38.049Z,92.55
2023-09-17T04:42:38.004Z,93.06
2023-09-17T04:43:38.079Z,93.26
2023-09-17T04:44:38.065Z,93.57
2023-09-17T04:45:38.140Z,93.77
2023-09-17T04:46:38.090Z,93.77
2023-09-17T04:47:38.061Z,93.46
2023-09-17T04:48:38.026Z,93.16
2023-09-17T04:49:38.037Z,92.96
2023-09-17T04:50:37.966Z,92.76
2023-09-17T04:51:37.961Z,92.55
2023-09-17T04:52:37.950Z,92.65
2023-09-17T04:53:38.173Z,93.06
2023-09-17T04:54:37.886Z,93.46
2023-09-17T04:55:38.020Z,93.97
2023-09-17T04:56:37.859Z,94.38
2023-09-17T04:57:37.893Z,94.48
2023-09-17T04:58:37.921Z,94.38
2023-09-17T04:59:37.919Z,94.27
2023-09-17T05:00:37.827Z,94.18
2023-09-17T05:01:37.928Z,94.07
2023-09-17T05:02:37.861Z,93.87
2023-09-17T05:03:37.908Z,93.97
2023-09-17T05:04:37.905Z,93.77
2023-09-17T05:05:37.834Z,93.46
2023-09-17T05:06:37.759Z,93.67
2023-09-17T05:07:37.921Z,93.97
2023-09-17T05:08:37.775Z,94.23
2023-09-17T05:09:37.777Z,94.13
2023-09-17T05:10:37.774Z,93.93
2023-09-17T05:11:37.707Z,93.83
2023-09-17T05:12:37.697Z,93.83
2023-09-17T05:13:37.733Z,93.73
2023-09-17T05:14:37.744Z,93.57
2023-09-17T05:15:37.664Z,93.83
2023-09-17T05:16:37.784Z,94.03
2023-09-17T05:17:37.665Z,94.23
2023-09-17T05:18:37.626Z,94.43
2023-09-17T05:19:37.790Z,94.23
2023-09-17T05:20:37.601Z,94.34
2023-09-17T05:21:37.593Z,94.54
2023-09-17T05:22:37.606Z,94.64
2023-09-17T05:23:37.572Z,94.64
2023-09-17T05:24:37.560Z,94.84
2023-09-17T05:25:37.665Z,94.74
2023-09-17T05:26:37.590Z,94.64
2023-09-17T05:27:37.525Z,94.43
2023-09-17T05:28:37.609Z,94.74
2023-09-17T05:29:37.605Z,94.64
2023-09-17T05:30:37.527Z,94.34
2023-09-17T05:31:37.620Z,94.34
2023-09-17T05:32:37.563Z,94.13
2023-09-17T05:33:37.469Z,94.03
2023-09-17T05:34:37.503Z,93.83
2023-09-17T05:35:37.451Z,93.83
2023-09-17T05:36:37.460Z,93.77
2023-09-17T05:37:37.483Z,93.87
2023-09-17T05:38:37.417Z,94.07
2023-09-17T05:39:37.455Z,94.34
2023-09-17T05:40:37.413Z,94.74
2023-09-17T05:41:37.375Z,95.04
2023-09-17T05:42:37.381Z,95.25
2023-09-17T05:43:37.410Z,95.45
2023-09-17T05:44:37.388Z,95.65
2023-09-17T05:45:37.416Z,95.65
2023-09-17T05:46:37.362Z,95.86
2023-09-17T05:47:37.336Z,95.86
2023-09-17T05:48:37.334Z,95.55
2023-09-17T05:49:37.357Z,95.35
2023-09-17T05:50:37.374Z,95.04
2023-09-17T05:51:37.272Z,95.04
2023-09-17T05:52:37.268Z,94.94
2023-09-17T05:53:37.251Z,95.04
2023-09-17T05:54:37.294Z,95.14
2023-09-17T05:55:37.261Z,95.14
2023-09-17T05:56:37.248Z,95.14
2023-09-17T05:57:37.209Z,95.25
2023-09-17T05:58:37.300Z,95.35
2023-09-17T05:59:37.216Z,95.45
2023-09-17T06:00:37.176Z,95.55
2023-09-17T06:01:37.280Z,95.65
2023-09-17T06:02:37.184Z,95.75
2023-09-17T06:03:37.204Z,95.75
2023-09-17T06:04:37.170Z,95.86
2023-09-17T06:05:37.117Z,95.86
2023-09-17T06:06:37.124Z,95.95
2023-09-17T06:07:37.134Z,96.15
2023-09-17T06:08:37.097Z,96.36
2023-09-17T06:09:37.192Z,96.46
2023-09-17T06:10:37.100Z,96.71
2023-09-17T06:11:37.056Z,96.91
2023-09-17T06:12:37.201Z,97.02
2023-09-17T06:13:37.481Z,97.22
2023-09-17T06:14:37.061Z,97.32
2023-09-17T06:15:37.057Z,97.42
2023-09-17T06:16:54.058Z,97.62
2023-09-17T06:17:38.169Z,97.83
2023-09-17T06:18:37.252Z,97.92
2023-09-17T06:19:37.098Z,98.03
2023-09-17T06:20:37.084Z,98.23
2023-09-17T06:21:36.970Z,98.33
2023-09-17T06:22:37.052Z,98.43
2023-09-17T06:23:36.955Z,98.63
2023-09-17T06:24:37.310Z,98.74
2023-09-17T06:25:37.005Z,98.94
2023-09-17T06:26:37.253Z,99.04
2023-09-17T06:27:36.939Z,99.14
2023-09-17T06:28:37.282Z,99.24
2023-09-17T06:29:37.614Z,99.35
2023-09-17T06:30:36.871Z,99.44
2023-09-17T06:31:36.927Z,99.55
2023-09-17T06:32:36.936Z,99.65
2023-09-17T06:33:36.829Z,99.35
2023-09-17T06:34:36.974Z,98.84
2023-09-17T06:35:36.799Z,98.33
2023-09-17T06:36:36.782Z,98.03
2023-09-17T06:37:36.871Z,97.52
2023-09-17T06:38:36.949Z,96.81
2023-09-17T06:39:36.924Z,97.32
2023-09-17T06:40:36.767Z,97.02
2023-09-17T06:41:39.652Z,97.83
2023-09-17T06:42:36.750Z,97.92
2023-09-17T06:43:36.729Z,96.61
2023-09-17T06:44:36.806Z,96.00
2023-09-17T06:45:36.693Z,96.00
2023-09-17T06:46:36.821Z,96.00
2023-09-17T06:47:36.775Z,96.00
2023-09-17T06:48:36.736Z,95.39
2023-09-17T06:49:36.677Z,95.65
2023-09-17T06:50:36.731Z,95.55
2023-09-17T06:51:36.724Z,96.66
2023-09-17T06:52:36.621Z,96.36
2023-09-17T06:53:36.654Z,95.14
2023-09-17T06:54:36.787Z,95.25
2023-09-17T06:55:36.588Z,94.43
2023-09-17T06:56:36.773Z,93.73
2023-09-17T06:57:39.762Z,93.12
2023-09-17T06:58:36.566Z,93.12
2023-09-17T06:59:36.527Z,93.83
2023-09-17T07:00:36.531Z,93.52
2023-09-17T07:01:36.774Z,93.18
2023-09-17T07:02:36.572Z,94.19
2023-09-17T07:03:36.536Z,95.10
2023-09-17T07:04:36.605Z,94.49
2023-09-17T07:05:36.455Z,93.68
2023-09-17T07:06:36.526Z,95.10
2023-09-17T07:07:36.529Z,95.00
2023-09-17T07:08:36.490Z,94.85
2023-09-17T07:09:36.438Z,94.45
2023-09-17T07:10:36.425Z,93.74
2023-09-17T07:11:37.439Z,93.43
2023-09-17T07:12:36.454Z,93.23
2023-09-17T07:13:36.603Z,93.13
2023-09-17T07:14:36.414Z,93.23
2023-09-17T07:15:36.409Z,93.33
2023-09-17T07:16:36.399Z,93.23
2023-09-17T07:17:36.705Z,93.33
2023-09-17T07:18:36.364Z,93.33
2023-09-17T07:19:36.317Z,93.23
2023-09-17T07:20:36.421Z,93.43
2023-09-17T07:21:36.305Z,94.50
2023-09-17T07:22:36.297Z,94.00
2023-09-17T07:23:36.301Z,93.70
2023-09-17T07:24:36.284Z,93.90
2023-09-17T07:25:36.761Z,93.70
2023-09-17T07:26:36.255Z,94.00
2023-09-17T07:27:36.240Z,94.10
2023-09-17T07:28:36.237Z,96.18
2023-09-17T07:29:36.273Z,95.78
2023-09-17T07:30:36.226Z,95.98
2023-09-17T07:31:36.207Z,96.48
2023-09-17T07:32:36.169Z,95.98
2023-09-17T07:33:36.163Z,95.47
2023-09-17T07:34:36.152Z,95.07
2023-09-17T07:35:36.137Z,95.87
2023-09-17T07:36:36.154Z,95.98
2023-09-17T07:37:50.213Z,95.78
2023-09-17T07:38:37.121Z,94.96
2023-09-17T07:39:36.120Z,94.86
2023-09-17T07:40:36.118Z,94.26
2023-09-17T07:41:36.084Z,93.65
2023-09-17T07:42:36.080Z,93.15
2023-09-17T07:43:36.125Z,94.21
2023-09-17T07:44:36.107Z,94.31
2023-09-17T07:45:36.047Z,93.51
2023-09-17T07:46:36.080Z,92.90
2023-09-17T07:47:36.034Z,92.69
2023-09-17T07:48:36.044Z,92.60
2023-09-17T07:49:36.046Z,92.49
2023-09-17T07:50:35.997Z,92.29
2023-09-17T07:51:35.952Z,92.19
2023-09-17T07:52:36.019Z,93.10
2023-09-17T07:53:35.939Z,94.11
2023-09-17T07:54:35.966Z,93.20
2023-09-17T07:55:36.051Z,95.48
2023-09-17T07:56:35.927Z,96.49
2023-09-17T07:57:35.929Z,95.38
2023-09-17T07:58:35.951Z,94.27
2023-09-17T07:59:35.887Z,93.46
2023-09-17T08:00:35.864Z,93.36
2023-09-17T08:01:35.967Z,92.96
2023-09-17T08:02:36.032Z,92.76
2023-09-17T08:03:35.952Z,92.76
2023-09-17T08:04:36.253Z,92.85
2023-09-17T08:05:35.830Z,92.85
2023-09-17T08:06:35.922Z,93.56
2023-09-17T08:07:36.092Z,93.46
2023-09-17T08:08:35.787Z,92.96
2023-09-17T08:09:35.757Z,93.87
2023-09-17T08:10:35.800Z,94.78
2023-09-17T08:11:35.753Z,95.54
2023-09-17T08:12:35.808Z,97.25
2023-09-17T08:13:35.887Z,96.14
2023-09-17T08:14:35.769Z,95.34
2023-09-17T08:15:35.743Z,94.23
2023-09-17T08:16:35.753Z,93.52
2023-09-17T08:17:35.724Z,93.21
2023-09-17T08:18:35.686Z,93.21
2023-09-17T08:19:35.759Z,95.23
2023-09-17T08:20:35.666Z,96.60
2023-09-17T08:21:35.652Z,97.61
2023-09-17T08:22:35.767Z,97.51
2023-09-17T08:23:35.640Z,96.50
2023-09-17T08:24:35.633Z,95.90
2023-09-17T08:25:35.668Z,94.48
2023-09-17T08:26:35.579Z,93.88
2023-09-17T08:27:35.582Z,93.98
2023-09-17T08:28:35.566Z,95.39
2023-09-17T08:29:35.655Z,96.10
2023-09-17T08:30:35.580Z,95.70
2023-09-17T08:31:35.559Z,97.36
2023-09-17T08:32:35.522Z,97.47
2023-09-17T08:33:35.518Z,97.97
2023-09-17T08:34:35.528Z,96.56
2023-09-17T08:35:35.567Z,95.85
2023-09-17T08:36:35.496Z,96.51
2023-09-17T08:37:35.534Z,95.45
2023-09-17T08:38:35.460Z,94.44
2023-09-17T08:39:35.457Z,94.84
2023-09-17T08:40:35.501Z,95.25
2023-09-17T08:41:35.422Z,95.20
2023-09-17T08:42:35.468Z,96.61
2023-09-17T08:43:35.419Z,95.81
2023-09-17T08:44:35.381Z,94.49
2023-09-17T08:45:35.429Z,97.88
2023-09-17T08:46:35.532Z,97.07
2023-09-17T08:47:35.402Z,96.26
2023-09-17T08:48:35.412Z,95.56
2023-09-17T08:49:35.388Z,94.09
2023-09-17T08:50:35.348Z,93.79
2023-09-17T08:51:35.338Z,93.29
2023-09-17T08:52:35.366Z,93.29
2023-09-17T08:53:35.292Z,94.19
2023-09-17T08:54:35.292Z,96.16
2023-09-17T08:55:35.331Z,97.67
2023-09-17T08:56:35.361Z,98.44
2023-09-17T08:57:35.270Z,98.03
2023-09-17T08:58:35.291Z,96.62
2023-09-17T08:59:35.238Z,95.61
2023-09-17T09:00:35.229Z,96.28
2023-09-17T09:01:35.305Z,96.08
2023-09-17T09:02:35.300Z,94.96
2023-09-17T09:03:35.316Z,94.76
2023-09-17T09:04:35.184Z,96.08
2023-09-17T09:05:35.172Z,94.76
2023-09-17T09:06:35.145Z,94.36
2023-09-17T09:07:35.189Z,94.16
2023-09-17T09:08:35.128Z,97.03
2023-09-17T09:09:35.144Z,95.22
2023-09-17T09:10:35.190Z,94.82
2023-09-17T09:11:35.119Z,94.62
2023-09-17T09:12:35.088Z,93.21
2023-09-17T09:13:35.145Z,94.21
2023-09-17T09:14:35.088Z,93.51
2023-09-17T09:15:35.087Z,95.32
2023-09-17T09:16:35.158Z,94.92
2023-09-17T09:17:35.113Z,95.68
2023-09-17T09:18:35.033Z,96.98
2023-09-17T09:19:35.053Z,96.19
2023-09-17T09:20:35.072Z,94.17
2023-09-17T09:21:34.988Z,93.77
2023-09-17T09:22:35.295Z,95.98
2023-09-17T09:23:34.956Z,95.73
2023-09-17T09:24:36.740Z,95.64
2023-09-17T09:25:34.997Z,94.13
2023-09-17T09:26:34.933Z,95.43
2023-09-17T09:27:34.928Z,94.89
2023-09-17T09:28:34.934Z,93.88
2023-09-17T09:29:35.183Z,94.18
2023-09-17T09:30:34.902Z,93.38
2023-09-17T09:31:34.901Z,93.78
2023-09-17T09:32:34.908Z,93.48
2023-09-17T09:33:34.945Z,93.88
2023-09-17T09:34:34.885Z,92.88
2023-09-17T09:35:34.890Z,92.68
2023-09-17T09:36:35.104Z,94.74
2023-09-17T09:37:34.854Z,93.93
2023-09-17T09:38:34.801Z,93.84
2023-09-17T09:39:34.782Z,93.13
2023-09-17T09:40:34.792Z,93.84
2023-09-17T09:41:34.864Z,93.59
2023-09-17T09:42:34.957Z,92.18
2023-09-17T09:43:34.779Z,90.94
2023-09-17T09:44:34.731Z,90.44
2023-09-17T09:45:34.815Z,90.23
2023-09-17T09:46:34.786Z,90.39
2023-09-17T09:47:34.720Z,90.09
2023-09-17T09:48:34.814Z,89.59
2023-09-17T09:49:34.699Z,90.39
2023-09-17T09:50:34.706Z,90.09
2023-09-17T09:51:34.687Z,87.84
2023-09-17T09:52:34.662Z,88.54
2023-09-17T09:53:34.637Z,88.04
2023-09-17T09:54:34.805Z,88.34
2023-09-17T09:55:34.657Z,88.44
2023-09-17T09:56:34.618Z,87.24
2023-09-17T09:57:34.583Z,86.54
2023-09-17T09:58:34.620Z,87.00
2023-09-17T09:59:34.572Z,86.40
2023-09-17T10:00:34.726Z,87.50
2023-09-17T10:01:34.645Z,88.00
2023-09-17T10:02:34.556Z,86.69
2023-09-17T10:03:34.526Z,87.40
2023-09-17T10:04:34.568Z,86.30
2023-09-17T10:05:34.536Z,86.30
2023-09-17T10:06:34.543Z,85.80
2023-09-17T10:07:34.521Z,84.19
2023-09-17T10:08:34.566Z,82.59
2023-09-17T10:09:34.466Z,84.19
2023-09-17T10:10:34.536Z,83.79
2023-09-17T10:11:34.429Z,84.99
2023-09-17T10:12:34.516Z,85.30
2023-09-17T10:13:34.498Z,85.49
2023-09-17T10:14:34.410Z,82.99
2023-09-17T10:15:34.440Z,82.95
2023-09-17T10:16:34.457Z,82.24
2023-09-17T10:17:34.402Z,82.85
2023-09-17T10:18:34.699Z,84.15
2023-09-17T10:19:34.466Z,84.25
2023-09-17T10:20:34.331Z,84.55
2023-09-17T10:21:34.316Z,83.55
2023-09-17T10:22:34.406Z,83.45
2023-09-17T10:23:34.334Z,84.35
2023-09-17T10:24:34.596Z,84.05
2023-09-17T10:25:34.313Z,82.55
2023-09-17T10:26:34.276Z,83.75
2023-09-17T10:27:34.261Z,84.71
2023-09-17T10:28:34.317Z,84.61
2023-09-17T10:29:34.291Z,83.61
2023-09-17T10:30:34.240Z,83.21
2023-09-17T10:31:34.324Z,83.61
2023-09-17T10:32:36.359Z,82.71
2023-09-17T10:33:34.310Z,83.61
2023-09-17T10:34:34.397Z,83.41
2023-09-17T10:35:34.179Z,83.91
2023-09-17T10:36:34.136Z,86.18
2023-09-17T10:37:34.185Z,84.17
2023-09-17T10:38:34.173Z,84.97
2023-09-17T10:39:34.376Z,85.27
2023-09-17T10:40:34.161Z,86.27
2023-09-17T10:41:34.208Z,86.47
2023-09-17T10:42:34.199Z,86.61
2023-09-17T10:43:34.368Z,85.71
2023-09-17T10:44:34.321Z,84.71
2023-09-17T10:45:34.059Z,84.67
2023-09-17T10:46:34.182Z,85.17
2023-09-17T10:47:34.128Z,84.17
2023-09-17T10:48:34.015Z,84.57
2023-09-17T10:49:34.163Z,83.57
2023-09-17T10:50:34.003Z,84.47
2023-09-17T10:51:33.990Z,84.27
2023-09-17T10:52:34.026Z,83.73
2023-09-17T10:53:34.000Z,83.43
2023-09-17T10:54:33.963Z,83.93
2023-09-17T10:55:34.163Z,82.73
2023-09-17T10:56:33.943Z,81.13
2023-09-17T10:57:34.125Z,82.89
2023-09-17T10:58:33.948Z,83.79
2023-09-17T10:59:33.907Z,83.99
2023-09-17T11:00:36.094Z,83.99
2023-09-17T11:01:34.157Z,83.79
2023-09-17T11:02:33.969Z,86.29
2023-09-17T11:03:33.895Z,85.49
2023-09-17T11:04:33.902Z,85.89
2023-09-17T11:05:33.859Z,86.79
2023-09-17T11:06:33.823Z,87.43
2023-09-17T11:07:34.009Z,86.23
2023-09-17T11:08:33.800Z,87.34
2023-09-17T11:09:33.793Z,86.83
2023-09-17T11:10:33.867Z,87.23
2023-09-17T11:11:33.782Z,86.83
2023-09-17T11:12:33.753Z,85.63
2023-09-17T11:13:33.954Z,87.73
2023-09-17T11:14:33.728Z,87.43
2023-09-17T11:15:33.727Z,87.83
2023-09-17T11:16:33.823Z,87.63
2023-09-17T11:17:33.860Z,85.63
2023-09-17T11:18:35.617Z,85.13
2023-09-17T11:19:33.947Z,85.53
2023-09-17T11:20:33.681Z,84.83
2023-09-17T11:21:33.681Z,85.19
2023-09-17T11:22:33.669Z,85.89
2023-09-17T11:23:33.644Z,86.59
2023-09-17T11:24:33.659Z,84.09
2023-09-17T11:25:33.686Z,86.49
2023-09-17T11:26:33.611Z,82.79
2023-09-17T11:27:33.595Z,85.39
2023-09-17T11:28:33.629Z,87.29
2023-09-17T11:29:33.586Z,86.09
2023-09-17T11:30:33.664Z,82.19
2023-09-17T11:31:33.687Z,81.69
2023-09-17T11:32:33.671Z,85.39
2023-09-17T11:33:33.556Z,84.89
2023-09-17T11:34:33.576Z,84.59
2023-09-17T11:35:33.632Z,85.19
2023-09-17T11:36:33.524Z,86.19
2023-09-17T11:37:33.522Z,85.69
2023-09-17T11:38:33.470Z,85.59
2023-09-17T11:39:33.494Z,83.29
2023-09-17T11:40:33.505Z,85.69
2023-09-17T11:41:34.860Z,82.23
2023-09-17T11:42:33.430Z,85.49
2023-09-17T11:43:33.465Z,87.29
2023-09-17T11:44:33.484Z,84.39
2023-09-17T11:45:33.499Z,85.99
2023-09-17T11:46:33.667Z,86.09
2023-09-17T11:47:33.649Z,83.89
2023-09-17T11:48:34.542Z,81.43
2023-09-17T11:49:33.394Z,80.33
2023-09-17T11:50:33.356Z,82.39
2023-09-17T11:51:33.372Z,82.29
2023-09-17T11:52:33.425Z,82.59
2023-09-17T11:53:33.315Z,84.99
2023-09-17T11:54:33.291Z,85.29
2023-09-17T11:55:33.362Z,84.43
2023-09-17T11:56:33.325Z,85.89
2023-09-17T11:57:33.605Z,87.29
2023-09-17T11:58:33.305Z,84.03
2023-09-17T11:59:33.268Z,84.43
2023-09-17T12:00:33.228Z,84.63
2023-09-17T12:01:33.273Z,85.03
2023-09-17T12:02:33.279Z,86.63
2023-09-17T12:03:33.331Z,84.63
2023-09-17T12:04:33.392Z,85.13
2023-09-17T12:05:33.172Z,85.53
2023-09-17T12:06:33.235Z,87.34
2023-09-17T12:07:42.205Z,86.83
2023-09-17T12:08:34.268Z,87.03
2023-09-17T12:09:33.150Z,85.83
2023-09-17T12:10:33.144Z,86.93
2023-09-17T12:11:33.135Z,84.63
2023-09-17T12:12:33.163Z,85.73
2023-09-17T12:13:33.162Z,86.93
2023-09-17T12:14:33.102Z,85.33
2023-09-17T12:15:33.096Z,87.23
2023-09-17T12:16:33.137Z,88.23
2023-09-17T12:17:34.674Z,84.83
2023-09-17T12:18:34.106Z,85.73
2023-09-17T12:19:33.180Z,85.93
2023-09-17T12:20:33.122Z,85.23
2023-09-17T12:21:33.014Z,85.63
2023-09-17T12:22:33.110Z,84.63
2023-09-17T12:23:33.010Z,84.63
2023-09-17T12:24:33.022Z,82.53
2023-09-17T12:25:33.001Z,84.03
2023-09-17T12:26:32.985Z,84.73
2023-09-17T12:27:32.998Z,85.49
2023-09-17T12:28:32.967Z,86.09
2023-09-17T12:33:25.575Z,84.49
2023-09-17T12:34:25.550Z,83.99
2023-09-17T12:35:25.566Z,81.89
2023-09-17T12:36:25.558Z,82.83
2023-09-17T12:37:25.532Z,81.33
2023-09-17T12:38:25.744Z,83.03
2023-09-17T12:39:25.518Z,82.53
2023-09-17T12:40:25.531Z,81.83
2023-09-17T12:41:39.590Z,83.43
2023-09-17T12:42:26.531Z,83.93
2023-09-17T12:43:25.484Z,83.63
2023-09-17T12:44:25.613Z,84.23
2023-09-17T12:45:25.628Z,84.23
2023-09-17T12:46:25.469Z,84.67
2023-09-17T12:47:25.499Z,84.37
2023-09-17T12:48:25.596Z,85.37
2023-09-17T12:49:25.543Z,85.17
2023-09-17T12:50:25.455Z,84.77
2023-09-17T12:51:25.422Z,84.87
2023-09-17T12:52:25.403Z,85.07
2023-09-17T12:53:25.426Z,84.87
2023-09-17T12:54:25.370Z,85.27
2023-09-17T12:55:25.341Z,85.47
2023-09-17T12:56:25.592Z,84.91